Time;durP1;ratioP1;P1;durP2;ratioP2;P2;SDS_P1;SDS_P2;PMS_P1;PMS_P2;Temp;Humidity;BMP_temperature;BMP_pressure;BME280_temperature;BME280_humidity;BME280_pressure;Samples;Min_cycle;Max_cycle;Signal;HPM_P1;HPM_P2
2021/10/29 00:01:17;;;;;;;34.53;24.58;;;;;;;7.40;100.00;100838.25;4877697;29;20053;-72
2021/10/29 00:03:44;;;;;;;34.22;22.98;;;;;;;7.39;100.00;100832.16;4897123;29;20067;-71
2021/10/29 00:06:11;;;;;;;45.40;25.15;;;;;;;7.31;100.00;100827.22;4879499;29;20044;-73
2021/10/29 00:08:39;;;;;;;31.15;23.25;;;;;;;7.25;100.00;100826.63;4900784;29;20062;-74
2021/10/29 00:11:06;;;;;;;36.42;25.02;;;;;;;7.23;100.00;100823.22;4891774;29;20059;-73
2021/10/29 00:13:34;;;;;;;39.40;24.92;;;;;;;7.26;100.00;100825.72;4897005;29;20049;-73
2021/10/29 00:16:01;;;;;;;38.25;24.90;;;;;;;7.25;100.00;100824.88;4896923;29;20047;-72
2021/10/29 00:18:28;;;;;;;33.42;24.52;;;;;;;7.17;100.00;100823.50;4881242;29;20480;-72
2021/10/29 00:20:56;;;;;;;40.65;25.45;;;;;;;7.23;100.00;100813.59;4896156;29;20535;-71
2021/10/29 00:23:25;;;;;;;36.65;25.60;;;;;;;7.15;100.00;100817.47;4882140;29;20052;-73
2021/10/29 00:25:52;;;;;;;39.60;26.63;;;;;;;7.01;100.00;100823.25;4902050;29;20076;-72
2021/10/29 00:28:19;;;;;;;39.97;25.17;;;;;;;6.99;100.00;100815.50;4895133;29;20056;-71
2021/10/29 00:30:46;;;;;;;43.42;25.50;;;;;;;6.98;100.00;100818.16;4877160;29;20531;-72
2021/10/29 00:33:15;;;;;;;41.78;26.23;;;;;;;7.12;100.00;100821.06;4893649;29;20048;-72
2021/10/29 00:35:44;;;;;;;40.15;26.52;;;;;;;7.12;100.00;100818.44;4889721;29;20060;-72
2021/10/29 00:38:11;;;;;;;38.05;25.80;;;;;;;7.10;100.00;100808.03;4875205;29;20075;-72
2021/10/29 00:40:39;;;;;;;37.90;26.15;;;;;;;7.14;100.00;100807.91;4890214;29;20148;-73
2021/10/29 00:43:07;;;;;;;39.92;26.23;;;;;;;7.09;100.00;100810.72;4859322;29;20053;-73
2021/10/29 00:45:35;;;;;;;38.10;25.88;;;;;;;7.05;100.00;100803.91;4874704;29;20070;-73
2021/10/29 00:48:03;;;;;;;43.05;28.00;;;;;;;6.93;100.00;100799.16;4877337;29;20053;-72
2021/10/29 00:50:30;;;;;;;40.80;27.70;;;;;;;7.05;100.00;100804.75;4894965;29;20045;-73
2021/10/29 00:52:57;;;;;;;39.47;26.52;;;;;;;7.07;100.00;100805.56;4894160;29;20044;-72
2021/10/29 00:55:24;;;;;;;39.13;26.77;;;;;;;6.95;100.00;100797.34;4874857;29;20053;-72
2021/10/29 00:57:52;;;;;;;42.38;26.98;;;;;;;6.91;100.00;100788.78;4877457;29;20420;-73
2021/10/29 01:00:20;;;;;;;37.38;26.80;;;;;;;6.93;100.00;100793.94;4874650;29;20060;-72
2021/10/29 01:02:47;;;;;;;35.47;26.70;;;;;;;6.83;100.00;100796.94;4878033;29;20529;-75
2021/10/29 01:05:14;;;;;;;40.03;27.35;;;;;;;6.84;100.00;100789.91;4875372;29;20048;-73
2021/10/29 01:07:41;;;;;;;40.17;28.20;;;;;;;6.76;100.00;100797.25;4878589;29;20299;-72
2021/10/29 01:10:13;;;;;;;43.70;28.27;;;;;;;6.79;100.00;100792.72;4887476;29;20056;-74
2021/10/29 01:12:40;;;;;;;41.72;27.48;;;;;;;6.71;100.00;100794.81;4892712;29;20160;-72
2021/10/29 01:15:09;;;;;;;40.83;27.60;;;;;;;6.71;100.00;100788.72;4864058;29;20065;-71
2021/10/29 01:17:37;;;;;;;44.38;29.65;;;;;;;6.60;100.00;100787.38;4893896;29;20084;-74
2021/10/29 01:20:08;;;;;;;42.03;28.98;;;;;;;6.56;100.00;100783.19;4903117;29;20117;-74
2021/10/29 01:22:35;;;;;;;40.00;28.55;;;;;;;6.55;100.00;100775.41;4891824;29;20566;-74
2021/10/29 01:25:03;;;;;;;46.83;28.85;;;;;;;6.60;100.00;100779.53;4884895;29;20412;-73
2021/10/29 01:27:30;;;;;;;40.40;28.77;;;;;;;6.52;100.00;100768.53;4868987;29;20064;-73
2021/10/29 01:29:59;;;;;;;43.50;30.40;;;;;;;6.50;100.00;100774.75;4878952;29;20183;-72
2021/10/29 01:32:26;;;;;;;44.08;29.73;;;;;;;6.45;100.00;100774.94;4892939;29;20048;-71
2021/10/29 01:34:53;;;;;;;41.40;29.52;;;;;;;6.46;100.00;100774.00;4876466;29;20049;-72
2021/10/29 01:37:21;;;;;;;45.60;29.45;;;;;;;6.39;100.00;100771.69;4887836;29;20065;-72
2021/10/29 01:47:12;;;;;;;47.92;31.75;;;;;;;6.30;100.00;100765.06;4891753;29;20063;-72
2021/10/29 01:49:41;;;;;;;46.47;31.60;;;;;;;6.22;100.00;100767.13;4891380;29;20070;-72
2021/10/29 01:52:08;;;;;;;46.95;30.23;;;;;;;6.27;100.00;100773.88;4892505;29;20063;-72
2021/10/29 01:54:36;;;;;;;50.47;32.67;;;;;;;6.18;100.00;100773.41;4859568;29;20162;-71
2021/10/29 01:57:04;;;;;;;46.88;31.98;;;;;;;6.03;100.00;100775.69;4839423;29;20044;-71
2021/10/29 01:59:31;;;;;;;47.78;32.28;;;;;;;5.83;100.00;100773.75;4876851;29;20055;-72
2021/10/29 02:01:58;;;;;;;49.90;34.28;;;;;;;5.84;100.00;100778.06;4897298;29;20060;-72
2021/10/29 02:04:25;;;;;;;49.13;33.70;;;;;;;5.89;100.00;100769.22;4874291;29;20055;-71
2021/10/29 02:06:53;;;;;;;47.97;31.85;;;;;;;5.93;100.00;100760.38;4897375;29;20096;-72
2021/10/29 02:09:20;;;;;;;51.97;33.70;;;;;;;6.19;100.00;100762.03;4872702;29;20078;-71
2021/10/29 02:11:47;;;;;;;47.03;32.53;;;;;;;6.15;100.00;100763.03;4874641;29;20055;-71
2021/10/29 02:14:15;;;;;;;55.03;32.78;;;;;;;6.17;100.00;100761.22;4889383;29;20071;-71
2021/10/29 02:16:42;;;;;;;50.83;34.55;;;;;;;6.11;100.00;100764.06;4891037;29;20504;-72
2021/10/29 02:19:09;;;;;;;46.47;31.38;;;;;;;6.04;100.00;100753.00;4854529;29;20065;-71
2021/10/29 02:21:37;;;;;;;47.13;32.03;;;;;;;6.15;100.00;100757.81;4874053;29;20049;-71
2021/10/29 02:24:05;;;;;;;47.45;33.10;;;;;;;6.02;100.00;100758.28;4888044;29;20048;-71
2021/10/29 02:26:34;;;;;;;51.00;31.67;;;;;;;6.06;100.00;100759.03;4876174;29;21529;-71
2021/10/29 02:29:02;;;;;;;50.97;33.83;;;;;;;6.09;100.00;100759.75;4874851;29;20053;-71
2021/10/29 02:31:30;;;;;;;49.35;32.55;;;;;;;6.09;100.00;100754.53;4896210;29;20515;-70
2021/10/29 02:33:58;;;;;;;51.53;32.67;;;;;;;6.12;100.00;100744.84;4881984;29;20406;-70
2021/10/29 02:36:25;;;;;;;50.00;32.75;;;;;;;6.07;100.00;100750.25;4890193;29;20076;-71
2021/10/29 02:38:56;;;;;;;46.15;32.40;;;;;;;5.96;100.00;100748.06;4854965;29;20048;-70
2021/10/29 02:41:23;;;;;;;50.33;32.35;;;;;;;5.95;100.00;100743.75;4889671;29;20140;-70
2021/10/29 02:43:50;;;;;;;44.15;30.35;;;;;;;5.91;100.00;100744.75;4875638;29;20067;-72
2021/10/29 02:46:18;;;;;;;46.58;33.20;;;;;;;5.85;100.00;100739.72;4877027;29;20049;-72
2021/10/29 02:48:45;;;;;;;52.97;34.38;;;;;;;5.86;100.00;100745.84;4891682;29;20044;-73
2021/10/29 02:51:13;;;;;;;53.38;35.25;;;;;;;5.75;100.00;100749.69;4896016;29;20427;-72
2021/10/29 02:53:40;;;;;;;52.60;34.55;;;;;;;5.83;100.00;100747.63;4895673;29;20048;-71
2021/10/29 02:56:08;;;;;;;50.50;33.30;;;;;;;5.79;100.00;100753.03;4878122;29;20169;-70
2021/10/29 02:58:35;;;;;;;48.75;34.63;;;;;;;5.80;100.00;100749.50;4895680;29;20459;-70
2021/10/29 03:01:03;;;;;;;43.88;33.15;;;;;;;5.80;100.00;100749.50;4882041;29;20484;-71
2021/10/29 03:03:31;;;;;;;50.78;33.63;;;;;;;5.80;100.00;100752.13;4895514;29;20052;-71
2021/10/29 03:05:58;;;;;;;50.15;32.70;;;;;;;6.01;100.00;100751.34;4895942;29;20123;-71
2021/10/29 03:08:26;;;;;;;47.75;33.38;;;;;;;5.87;100.00;100748.38;4884034;29;20435;-72
2021/10/29 03:10:54;;;;;;;50.08;33.17;;;;;;;5.76;100.00;100753.13;4885581;29;20530;-71
2021/10/29 03:13:23;;;;;;;51.95;33.42;;;;;;;5.70;100.00;100758.59;4880138;29;20123;-70
2021/10/29 03:15:50;;;;;;;49.25;33.53;;;;;;;5.56;100.00;100762.56;4900599;29;20060;-70
2021/10/29 03:18:18;;;;;;;57.40;34.88;;;;;;;5.66;100.00;100759.63;4886294;29;20106;-70
2021/10/29 03:20:46;;;;;;;53.78;34.65;;;;;;;5.75;100.00;100754.91;4866855;29;20456;-70
2021/10/29 03:23:16;;;;;;;49.58;33.85;;;;;;;5.54;100.00;100756.56;4878031;29;20134;-71
2021/10/29 03:25:44;;;;;;;57.20;36.47;;;;;;;5.59;100.00;100762.47;4879184;29;20604;-71
2021/10/29 03:28:12;;;;;;;56.63;36.63;;;;;;;5.56;100.00;100762.56;4881546;29;20469;-71
2021/10/29 03:30:39;;;;;;;52.35;35.40;;;;;;;5.69;100.00;100762.13;4872723;29;20440;-72
2021/10/29 03:33:07;;;;;;;53.33;34.85;;;;;;;5.64;100.00;100766.66;4902201;29;20079;-72
2021/10/29 03:35:35;;;;;;;53.45;35.53;;;;;;;5.54;100.00;100764.38;4880876;29;20075;-71
2021/10/29 03:40:55;;;;;;;56.42;39.05;;;;;;;5.50;100.00;100759.34;4894918;29;20064;-71
2021/10/29 03:43:28;;;;;;;61.03;38.72;;;;;;;5.34;100.00;100759.00;4895919;29;20076;-70
2021/10/29 03:46:00;;;;;;;58.35;36.42;;;;;;;5.56;100.00;100753.88;4892923;29;20063;-70
2021/10/29 03:51:19;;;;;;;;;;;;;;;5.41;100.00;100750.06;4897371;29;20052;-71
2021/10/29 03:56:20;;;;;;;49.80;35.30;;;;;;;5.36;100.00;100744.16;4894109;29;20067;-70
2021/10/29 03:58:51;;;;;;;58.85;38.58;;;;;;;5.29;100.00;100750.50;4908850;29;20061;-70
2021/10/29 04:01:18;;;;;;;56.40;37.10;;;;;;;5.34;100.00;100745.97;4904090;29;20152;-71
2021/10/29 04:03:46;;;;;;;60.40;38.17;;;;;;;5.38;100.00;100744.09;4868466;29;20049;-70
2021/10/29 04:06:13;;;;;;;57.88;38.72;;;;;;;5.28;100.00;100743.56;4882283;29;20052;-70
2021/10/29 04:08:42;;;;;;;58.15;38.92;;;;;;;5.22;100.00;100749.88;4878225;29;20060;-71
2021/10/29 04:11:09;;;;;;;60.38;39.45;;;;;;;5.21;100.00;100747.28;4882236;29;20052;-71
2021/10/29 04:13:38;;;;;;;54.05;37.03;;;;;;;5.21;100.00;100744.69;4890043;29;20434;-71
2021/10/29 04:16:05;;;;;;;57.25;36.75;;;;;;;5.26;100.00;100754.03;4889338;29;20450;-71
2021/10/29 04:18:33;;;;;;;58.08;38.33;;;;;;;5.17;100.00;100750.91;4876810;29;20056;-71
2021/10/29 04:21:01;;;;;;;55.50;37.72;;;;;;;5.07;100.00;100756.44;4883144;29;20056;-71
2021/10/29 04:23:28;;;;;;;58.33;39.55;;;;;;;5.14;100.00;100754.50;4897749;29;20053;-71
2021/10/29 04:25:56;;;;;;;55.90;38.58;;;;;;;5.11;100.00;100753.75;4890190;29;20063;-70
2021/10/29 04:28:23;;;;;;;58.70;38.00;;;;;;;5.04;100.00;100742.66;4878926;29;20067;-71
2021/10/29 04:30:52;;;;;;;66.60;41.90;;;;;;;4.90;100.00;100745.72;4877674;29;20045;-71
2021/10/29 04:33:20;;;;;;;56.08;36.97;;;;;;;5.07;100.00;100750.38;4852065;29;20044;-72
2021/10/29 04:35:51;;;;;;;63.33;39.17;;;;;;;4.98;100.00;100759.38;4878478;29;20061;-73
2021/10/29 04:38:19;;;;;;;61.22;40.05;;;;;;;4.99;100.00;100750.63;4855217;29;21218;-77
2021/10/29 04:40:46;;;;;;;56.05;36.53;;;;;;;5.08;100.00;100755.53;4875014;29;20052;-73
2021/10/29 04:43:14;;;;;;;53.03;35.85;;;;;;;5.28;100.00;100751.41;4875309;29;20087;-74
2021/10/29 04:45:41;;;;;;;55.25;36.83;;;;;;;5.12;100.00;100750.22;4875135;29;20508;-74
2021/10/29 04:48:08;;;;;;;63.25;38.33;;;;;;;5.05;100.00;100750.44;4859057;29;20048;-73
2021/10/29 04:50:35;;;;;;;57.25;37.38;;;;;;;5.03;100.00;100754.84;4889880;29;20053;-73
2021/10/29 04:53:03;;;;;;;53.63;36.10;;;;;;;5.06;100.00;100751.28;4891655;29;20512;-73
2021/10/29 04:55:30;;;;;;;53.67;36.47;;;;;;;5.02;100.00;100753.16;4892072;29;20549;-72
2021/10/29 04:57:57;;;;;;;57.30;38.33;;;;;;;5.10;100.00;100749.44;4874514;29;20056;-73
2021/10/29 05:00:25;;;;;;;55.08;37.70;;;;;;;5.08;100.00;100760.75;4889870;29;20058;-73
2021/10/29 05:02:58;;;;;;;61.15;40.28;;;;;;;5.02;100.00;100760.97;4890605;29;20067;-74
2021/10/29 05:05:26;;;;;;;65.32;39.80;;;;;;;4.79;100.00;100756.53;4859484;29;20098;-73
2021/10/29 05:07:53;;;;;;;57.30;36.17;;;;;;;4.87;100.00;100758.03;4874396;29;20060;-73
2021/10/29 05:10:20;;;;;;;55.78;38.03;;;;;;;4.84;100.00;100753.75;4874854;29;20052;-74
2021/10/29 05:12:47;;;;;;;60.78;38.35;;;;;;;4.87;100.00;100758.88;4892536;29;20075;-73
2021/10/29 05:15:17;;;;;;;59.35;37.63;;;;;;;4.90;100.00;100756.16;4857545;29;20052;-72
2021/10/29 05:17:45;;;;;;;61.05;41.60;;;;;;;4.80;100.00;100752.16;4873262;29;20089;-75
2021/10/29 05:20:13;;;;;;;57.50;38.28;;;;;;;4.94;100.00;100752.53;4875452;29;20044;-73
2021/10/29 05:22:41;;;;;;;54.67;37.22;;;;;;;4.88;100.00;100749.31;4878968;29;20050;-74
2021/10/29 05:25:09;;;;;;;60.47;38.97;;;;;;;4.83;100.00;100744.25;4874443;29;20048;-74
2021/10/29 05:27:37;;;;;;;62.15;38.45;;;;;;;4.80;100.00;100752.16;4860941;29;20049;-75
2021/10/29 05:30:08;;;;;;;57.28;38.97;;;;;;;4.87;100.00;100751.06;4890923;29;20056;-74
2021/10/29 05:32:37;;;;;;;59.67;37.90;;;;;;;4.92;100.00;100746.53;4889434;29;20076;-73
2021/10/29 05:35:05;;;;;;;60.33;36.55;;;;;;;4.92;100.00;100748.31;4880481;29;20044;-73
2021/10/29 05:37:34;;;;;;;58.60;38.17;;;;;;;4.88;100.00;100746.69;4879577;29;20052;-72
2021/10/29 05:40:04;;;;;;;58.28;37.50;;;;;;;4.80;100.00;100752.16;4874076;29;20540;-73
2021/10/29 05:42:33;;;;;;;63.53;39.22;;;;;;;4.77;100.00;100755.72;4892442;29;20053;-72
2021/10/29 05:45:00;;;;;;;53.45;36.72;;;;;;;4.80;100.00;100753.00;4874177;29;20052;-72
2021/10/29 05:47:28;;;;;;;54.53;37.72;;;;;;;4.90;100.00;100757.91;4870691;29;20297;-73
2021/10/29 05:49:56;;;;;;;65.97;42.20;;;;;;;4.66;100.00;100752.59;4887619;29;20530;-73
2021/10/29 05:52:24;;;;;;;72.38;40.22;;;;;;;4.64;100.00;100758.75;4882404;29;20052;-74
2021/10/29 05:57:21;;;;;;;65.45;40.50;;;;;;;4.87;100.00;100752.81;4891075;29;20059;-72
2021/10/29 05:59:50;;;;;;;57.35;36.83;;;;;;;4.87;100.00;100758.88;4889724;29;20063;-73
2021/10/29 06:02:17;;;;;;;58.10;37.75;;;;;;;4.87;100.00;100758.88;4893879;29;20063;-74
2021/10/29 06:04:45;;;;;;;63.38;38.42;;;;;;;4.85;100.00;100768.50;4867256;29;20052;-74
2021/10/29 06:07:12;;;;;;;60.65;37.67;;;;;;;5.14;100.00;100764.09;4893463;29;20502;-73
2021/10/29 06:09:40;;;;;;;57.78;37.00;;;;;;;4.90;100.00;100769.19;4883097;29;20190;-72
2021/10/29 06:12:07;;;;;;;59.67;35.85;;;;;;;4.99;100.00;100768.03;4870832;29;20067;-73
2021/10/29 06:14:36;;;;;;;54.95;35.75;;;;;;;5.11;100.00;100774.63;4887403;29;20053;-74
2021/10/29 06:17:06;;;;;;;51.22;35.90;;;;;;;5.05;100.00;100765.25;4906403;29;20061;-72
2021/10/29 06:19:33;;;;;;;58.85;36.20;;;;;;;5.11;100.00;100767.63;4874543;29;20690;-73
2021/10/29 06:24:34;;;;;;;60.97;35.88;;;;;;;5.01;100.00;100771.47;4892127;29;20544;-73
2021/10/29 06:27:08;;;;;;;56.85;35.30;;;;;;;5.13;100.00;100770.19;4894282;29;20147;-73
2021/10/29 06:29:36;;;;;;;50.67;34.33;;;;;;;5.28;100.00;100767.91;4894158;29;20059;-73
2021/10/29 06:32:06;;;;;;;49.50;34.53;;;;;;;5.30;100.00;100771.31;4894112;29;20554;-73
2021/10/29 06:34:37;;;;;;;55.03;34.33;;;;;;;5.22;100.00;100772.47;4893340;29;20052;-74
2021/10/29 06:37:06;;;;;;;53.30;35.55;;;;;;;5.31;100.00;100769.53;4894684;29;20082;-73
2021/10/29 06:39:34;;;;;;;49.70;33.10;;;;;;;5.31;100.00;100765.22;4874956;29;20051;-73
2021/10/29 06:42:07;;;;;;;55.40;36.47;;;;;;;5.31;100.00;100766.94;4878664;29;20063;-73
2021/10/29 06:44:51;;;;;;;58.30;35.17;;;;;;;5.47;100.00;100773.34;4874600;29;20549;-72
2021/10/29 06:52:35;;;;;;;54.10;36.30;;;;;;;5.93;100.00;100778.69;4883609;29;20052;-73
2021/10/29 07:11:53;;;;;;;50.85;35.05;;;;;;;6.46;100.00;100786.25;4890674;29;20051;-73
2021/10/29 07:41:59;;;;;;;35.92;21.63;;;;;;;15.64;54.42;100775.75;4895928;29;20045;-73
2021/10/29 07:44:28;;;;;;;32.25;20.65;;;;;;;16.61;50.87;100763.56;4875843;29;20088;-74
2021/10/29 07:46:56;;;;;;;29.75;21.55;;;;;;;16.63;50.71;100774.09;4893967;29;20045;-73
2021/10/29 07:49:28;;;;;;;36.78;22.70;;;;;;;17.02;49.25;100769.09;4889650;29;20057;-74
2021/10/29 07:51:57;;;;;;;29.35;20.70;;;;;;;17.68;48.56;100772.34;4892390;29;20070;-74
2021/10/29 07:54:25;;;;;;;29.55;20.02;;;;;;;17.92;46.41;100777.38;4886105;29;20068;-73
2021/10/29 07:56:53;;;;;;;28.27;19.77;;;;;;;17.16;48.42;100779.47;4879371;29;20425;-73
2021/10/29 07:59:21;;;;;;;25.13;19.85;;;;;;;18.59;45.19;100782.06;4891045;29;20414;-73
2021/10/29 08:01:49;;;;;;;26.02;19.88;;;;;;;17.21;48.19;100783.41;4893860;29;20057;-74
2021/10/29 08:04:21;;;;;;;32.45;20.08;;;;;;;17.85;46.49;100776.25;4857845;29;20094;-73
2021/10/29 08:06:51;;;;;;;30.55;19.40;;;;;;;17.30;47.74;100771.16;4874526;29;20147;-73
2021/10/29 08:09:19;;;;;;;28.27;20.35;;;;;;;16.76;48.40;100773.97;4857810;29;20680;-74
2021/10/29 08:11:47;;;;;;;26.42;18.63;;;;;;;16.39;48.96;100771.59;4890291;29;20531;-74
2021/10/29 08:14:15;;;;;;;34.22;20.08;;;;;;;17.66;47.36;100776.97;4888422;29;20055;-74
2021/10/29 08:16:42;;;;;;;24.52;18.90;;;;;;;16.46;49.36;100772.78;4894261;29;20420;-74
2021/10/29 08:19:11;;;;;;;22.90;18.17;;;;;;;16.23;50.15;100774.66;4872082;29;20516;-73
2021/10/29 08:21:38;;;;;;;26.15;18.42;;;;;;;16.39;49.95;100769.81;4892568;29;20059;-74
2021/10/29 08:24:09;;;;;;;27.10;19.40;;;;;;;16.91;48.54;100767.34;4890656;29;20067;-73
2021/10/29 08:26:37;;;;;;;30.88;19.13;;;;;;;16.59;49.96;100770.81;4893312;29;20128;-72
2021/10/29 08:29:04;;;;;;;24.33;17.98;;;;;;;16.53;51.28;100770.50;4893703;29;20080;-73
2021/10/29 08:31:31;;;;;;;25.60;18.85;;;;;;;17.05;49.33;100775.03;4878250;29;20052;-74
2021/10/29 08:34:00;;;;;;;23.85;18.88;;;;;;;17.15;47.74;100767.09;4893373;29;20063;-74
2021/10/29 08:36:29;;;;;;;23.80;18.00;;;;;;;17.39;47.54;100767.72;4891417;29;20456;-73
2021/10/29 08:38:56;;;;;;;25.10;19.13;;;;;;;17.38;47.93;100767.81;4863945;29;20063;-73
2021/10/29 08:41:29;;;;;;;32.40;19.15;;;;;;;17.65;47.04;100762.81;4892123;29;20067;-73
2021/10/29 08:43:56;;;;;;;23.83;18.33;;;;;;;18.03;45.76;100766.63;4891049;29;20061;-73
2021/10/29 08:46:30;;;;;;;27.98;18.80;;;;;;;18.61;44.16;100761.44;4888993;29;20044;-73
2021/10/29 08:48:58;;;;;;;30.38;19.38;;;;;;;19.44;42.72;100759.16;4890683;29;20068;-74
2021/10/29 08:51:25;;;;;;;29.33;20.45;;;;;;;17.79;45.66;100764.31;4876788;29;20052;-73
2021/10/29 08:53:54;;;;;;;25.00;19.42;;;;;;;17.04;47.56;100760.03;4860476;29;20206;-74
2021/10/29 08:56:23;;;;;;;25.98;19.25;;;;;;;18.31;45.32;100757.03;4891587;29;20048;-74
2021/10/29 08:59:16;;;;;;;29.10;18.90;;;;;;;18.91;43.78;100754.31;4892012;29;20053;-76
2021/10/29 09:01:48;;;;;;;27.00;18.40;;;;;;;17.85;45.29;100755.78;4861293;29;20996;-74
2021/10/29 09:04:17;;;;;;;24.98;18.08;;;;;;;17.03;47.24;100763.69;4890395;29;20143;-73
2021/10/29 09:07:04;;;;;;;27.30;18.67;;;;;;;16.83;48.87;100756.50;4877593;29;20064;-75
2021/10/29 09:09:45;;;;;;;24.40;18.20;;;;;;;16.82;49.46;100747.69;4891847;29;20057;-74
2021/10/29 09:31:28;;;;;;;34.53;24.02;;;;;;;10.69;73.81;100757.09;4860934;29;20048;-74
2021/10/29 09:34:11;;;;;;;33.00;23.70;;;;;;;10.49;75.45;100744.22;4886617;29;20079;-75
2021/10/29 09:36:44;;;;;;;33.83;22.50;;;;;;;10.49;76.00;100752.13;4875870;29;20048;-73
2021/10/29 09:39:19;;;;;;;31.23;23.02;;;;;;;10.49;76.61;100747.72;4889488;29;20135;-74
2021/10/29 09:42:00;;;;;;;32.20;23.30;;;;;;;10.55;76.49;100747.38;4892395;29;20089;-74
2021/10/29 09:44:45;;;;;;;29.95;23.27;;;;;;;10.43;76.98;100750.69;4871743;29;20143;-75
2021/10/29 09:47:19;;;;;;;32.10;23.17;;;;;;;10.45;77.54;100748.81;4889125;29;20056;-73
2021/10/29 09:50:02;;;;;;;31.02;22.80;;;;;;;10.46;77.63;100752.31;4874914;29;20096;-74
2021/10/29 09:52:47;;;;;;;34.58;22.10;;;;;;;10.57;77.25;100755.16;4890847;29;20048;-74
2021/10/29 09:55:35;;;;;;;30.33;22.67;;;;;;;10.67;76.72;100758.13;4890511;29;20365;-74
2021/10/29 09:58:01;;;;;;;33.95;23.38;;;;;;;10.62;77.22;100766.28;4877292;29;20136;-73
2021/10/29 10:00:30;;;;;;;29.38;22.67;;;;;;;10.61;77.21;100760.16;4870558;29;20049;-74
2021/10/29 10:02:58;;;;;;;29.20;22.40;;;;;;;10.64;77.49;100759.16;4875563;29;20061;-74
2021/10/29 10:05:25;;;;;;;36.33;23.33;;;;;;;10.63;76.82;100757.47;4868511;29;20045;-74
2021/10/29 10:07:54;;;;;;;29.33;21.85;;;;;;;10.63;77.40;100750.41;4859487;29;20099;-74
2021/10/29 10:10:21;;;;;;;30.50;22.40;;;;;;;10.75;77.69;100758.53;4887678;29;20251;-71
2021/10/29 10:12:49;;;;;;;34.63;23.67;;;;;;;10.55;78.23;100759.69;4874446;29;20096;-72
2021/10/29 10:15:17;;;;;;;34.20;23.77;;;;;;;10.73;76.96;100752.53;4891722;29;20445;-71
2021/10/29 10:17:45;;;;;;;30.50;22.67;;;;;;;10.79;76.36;100749.53;4869564;29;20048;-71
2021/10/29 10:20:12;;;;;;;33.05;23.50;;;;;;;10.84;76.35;100748.31;4869584;29;20065;-72
2021/10/29 10:22:42;;;;;;;32.30;22.92;;;;;;;10.76;76.56;100747.94;4889668;29;20089;-72
2021/10/29 10:25:18;;;;;;;34.47;23.45;;;;;;;10.95;76.30;100745.06;4887523;29;20053;-71
2021/10/29 10:42:35;;;;;;;29.85;21.52;;;;;;;11.21;75.22;100738.22;4889527;29;20053;-71
2021/10/29 10:47:36;;;;;;;29.27;21.05;;;;;;;11.37;74.39;100736.38;4887100;29;20150;-71
2021/10/29 10:50:18;;;;;;;30.50;21.80;;;;;;;11.42;74.14;100738.75;4888590;29;20262;-71
2021/10/29 10:53:07;;;;;;;29.08;20.92;;;;;;;11.55;74.85;100731.78;4867368;29;20049;-71
2021/10/29 11:04:44;;;;;;;26.15;20.23;;;;;;;11.72;72.08;100712.28;4855594;29;20048;-71
2021/10/29 11:10:07;;;;;;;27.30;21.02;;;;;;;11.81;72.83;100697.69;4878760;29;20148;-71
2021/10/29 11:12:40;;;;;;;39.15;19.95;;;;;;;11.97;74.66;100700.22;4891530;29;20062;-74
2021/10/29 11:15:11;;;;;;;26.58;19.63;;;;;;;12.01;71.67;100699.09;4894340;29;20074;-74
2021/10/29 11:17:51;;;;;;;32.70;23.63;;;;;;;11.86;72.52;100693.84;4889054;29;20048;-73
2021/10/29 11:20:51;;;;;;;26.48;20.35;;;;;;;12.11;72.20;100687.00;4902250;29;20119;-71
2021/10/29 11:23:29;;;;;;;29.98;20.35;;;;;;;12.10;71.25;100683.50;4901995;29;20614;-73
2021/10/29 11:26:07;;;;;;;28.35;19.95;;;;;;;12.19;71.27;100679.44;4895894;29;20183;-75
2021/10/29 11:28:48;;;;;;;29.80;20.35;;;;;;;12.30;70.00;100670.84;4865808;29;20087;-79
2021/10/29 11:31:38;;;;;;;28.70;20.33;;;;;;;12.25;69.75;100673.78;4902153;29;20056;-69
2021/10/29 11:34:08;;;;;;;30.88;21.27;;;;;;;12.19;70.28;100671.50;4893685;29;20047;-69
2021/10/29 11:36:37;;;;;;;25.95;18.88;;;;;;;12.34;69.10;100664.41;4891920;29;20049;-69
2021/10/29 11:39:08;;;;;;;27.08;19.88;;;;;;;12.39;69.34;100662.31;4858060;29;20698;-69
2021/10/29 11:41:37;;;;;;;25.77;19.77;;;;;;;12.41;69.94;100660.41;4892359;29;20369;-70
2021/10/29 11:44:07;;;;;;;26.52;19.42;;;;;;;12.47;68.85;100657.34;4872766;29;21624;-73
2021/10/29 11:46:35;;;;;;;24.95;19.65;;;;;;;12.47;69.23;100646.78;4890628;29;20052;-71
2021/10/29 11:49:09;;;;;;;33.28;21.00;;;;;;;12.32;69.51;100643.38;4874108;29;20056;-73
2021/10/29 11:51:38;;;;;;;32.50;21.48;;;;;;;12.31;69.36;100643.47;4889772;29;20565;-72
2021/10/29 12:07:35;;;;;;;32.42;21.80;;;;;;;12.47;68.96;100632.72;4873939;29;20128;-71
2021/10/29 12:10:16;;;;;;;30.27;20.55;;;;;;;12.45;69.19;100617.00;4874645;29;20060;-70
2021/10/29 12:12:45;;;;;;;29.90;21.52;;;;;;;12.48;69.05;100611.53;4876863;29;20056;-72
2021/10/29 12:15:16;;;;;;;27.33;21.23;;;;;;;12.52;68.73;100604.22;4890308;29;20144;-71
2021/10/29 12:18:00;;;;;;;31.05;21.35;;;;;;;12.55;68.44;100604.88;4890666;29;20598;-72
2021/10/29 12:20:34;;;;;;;29.15;20.90;;;;;;;12.54;68.32;100597.91;4889386;29;20372;-71
2021/10/29 12:23:25;;;;;;;26.92;20.67;;;;;;;12.74;68.27;100599.19;4902621;29;20065;-71
2021/10/29 12:28:35;;;;;;;29.80;21.95;;;;;;;12.71;67.73;100590.66;4891281;29;20048;-69
2021/10/29 12:54:08;;;;;;;27.75;19.58;;;;;;;12.90;66.73;100575.22;4867776;29;20060;-73
2021/10/29 13:01:26;;;;;;;;;;;;;;;12.95;67.22;100575.72;4890252;29;20526;-73
2021/10/29 13:02:27;;;;;;;24.10;20.00;;;;;;;12.92;66.67;100574.16;4891694;29;19999;-72
2021/10/29 13:04:57;;;;;;;30.08;19.23;;;;;;;12.83;66.85;100577.44;4890036;29;20051;-71
2021/10/29 13:07:26;;;;;;;24.50;19.30;;;;;;;12.95;66.56;100572.25;4881047;29;20435;-72
2021/10/29 13:10:06;;;;;;;29.52;19.88;;;;;;;12.95;66.81;100570.44;4874578;29;20053;-70
2021/10/29 13:12:47;;;;;;;23.98;19.15;;;;;;;12.96;66.41;100566.84;4884737;29;20083;-71
2021/10/29 13:15:17;;;;;;;32.40;19.13;;;;;;;12.99;66.63;100556.06;4891197;29;20452;-71
2021/10/29 13:17:53;;;;;;;23.65;18.92;;;;;;;12.92;67.09;100555.66;4875721;29;20045;-72
2021/10/29 13:28:50;;;;;;;27.30;19.08;;;;;;;12.99;67.93;100549.94;4892719;29;20095;-72
2021/10/29 13:36:55;;;;;;;28.35;17.30;;;;;;;12.93;66.93;100541.50;4877892;29;20059;-73
2021/10/29 13:51:09;;;;;;;25.13;16.08;;;;;;;12.86;67.99;100548.16;4893303;29;20048;-72
2021/10/29 13:53:49;;;;;;;21.17;15.40;;;;;;;12.89;67.70;100550.59;4890847;29;20354;-71
2021/10/29 13:56:24;;;;;;;18.55;13.82;;;;;;;13.03;66.89;100554.06;4888595;29;20075;-70
2021/10/29 14:01:41;;;;;;;24.13;15.20;;;;;;;12.96;67.31;100560.72;4876480;29;20066;-71
2021/10/29 14:16:22;;;;;;;22.60;15.68;;;;;;;13.00;67.27;100552.47;4889555;29;20279;-71
2021/10/29 14:31:47;;;;;;;23.67;18.40;;;;;;;12.76;69.58;100523.34;4895178;29;20059;-72
2021/10/29 14:34:18;;;;;;;24.67;18.40;;;;;;;12.71;69.48;100520.16;4893826;29;20057;-72
2021/10/29 14:36:54;;;;;;;20.98;17.27;;;;;;;12.73;69.49;100526.19;4895391;29;20136;-72
2021/10/29 14:39:41;;;;;;;26.10;17.50;;;;;;;12.73;69.76;100523.53;4894574;29;20583;-73
2021/10/29 14:44:58;;;;;;;25.17;17.55;;;;;;;12.59;69.98;100513.94;4877337;29;20591;-71
2021/10/29 14:47:44;;;;;;;22.92;17.08;;;;;;;12.56;70.34;100514.16;4896963;29;20053;-72
2021/10/29 15:00:22;;;;;;;27.95;20.10;;;;;;;12.48;70.43;100511.19;4893887;29;20079;-72
2021/10/29 15:01:33;;;;;;;27.60;19.58;;;;;;;12.50;70.18;100511.09;4881658;29;20220;-72
2021/10/29 15:04:32;;;;;;;24.73;19.13;;;;;;;12.41;70.24;100508.13;4881501;29;20069;-72
2021/10/29 15:26:27;;;;;;;25.23;18.85;;;;;;;11.92;72.65;100510.56;4872893;29;20295;-72
2021/10/29 15:29:09;;;;;;;22.25;19.17;;;;;;;11.71;73.77;100510.19;4894911;29;20438;-72